Time;durP1;ratioP1;P1;durP2;ratioP2;P2;SDS_P1;SDS_P2;PMS_P1;PMS_P2;Temp;Humidity;BMP_temperature;BMP_pressure;BME280_temperature;BME280_humidity;BME280_pressure;Samples;Min_cycle;Max_cycle;Signal;HPM_P1;HPM_P2
2023/12/08 00:02:03;;;;;;;1.58;1.48;;;;;;;-2.31;84.39;100921.59;5088222;28;20127;-69
2023/12/08 00:04:28;;;;;;;1.05;1.05;;;;;;;-2.34;84.47;100916.34;5106784;28;20074;-69
2023/12/08 00:06:54;;;;;;;2.80;2.05;;;;;;;-2.34;84.40;100915.47;5106613;28;20032;-68
2023/12/08 00:09:19;;;;;;;4.38;1.55;;;;;;;-2.35;84.41;100919.69;5106700;28;20051;-68
2023/12/08 00:11:44;;;;;;;2.67;2.50;;;;;;;-2.32;84.52;100939.31;5106509;28;20023;-69
2023/12/08 00:14:10;;;;;;;1.75;1.65;;;;;;;-2.35;84.52;100929.88;5106206;28;20454;-69
2023/12/08 00:16:35;;;;;;;6.07;2.70;;;;;;;-2.37;84.73;100926.38;5106483;28;20024;-69
2023/12/08 00:19:01;;;;;;;4.45;2.28;;;;;;;-2.35;84.64;100934.06;5106136;28;20016;-68
2023/12/08 00:21:26;;;;;;;2.00;1.67;;;;;;;-2.33;84.60;100932.50;5106292;28;20050;-70
2023/12/08 00:23:52;;;;;;;1.30;1.20;;;;;;;-2.29;84.67;100931.84;5106510;28;20016;-69
2023/12/08 00:26:17;;;;;;;2.95;2.75;;;;;;;-2.31;84.53;100931.78;5106297;28;20031;-70
2023/12/08 00:28:44;;;;;;;2.95;2.72;;;;;;;-2.33;84.54;100923.16;5106075;28;20046;-68
2023/12/08 00:31:09;;;;;;;1.73;1.63;;;;;;;-2.29;84.68;100927.66;5106325;28;20020;-70
2023/12/08 00:33:35;;;;;;;1.63;1.27;;;;;;;-2.34;84.29;100923.97;5106032;28;20357;-69
2023/12/08 00:36:00;;;;;;;10.07;1.25;;;;;;;-2.33;84.66;100930.81;5087818;28;20024;-69
2023/12/08 00:38:25;;;;;;;12.00;1.35;;;;;;;-2.35;84.51;100940.03;5105967;28;20452;-69
2023/12/08 00:40:52;;;;;;;1.00;1.00;;;;;;;-2.32;84.62;100934.22;5105872;28;20020;-69
2023/12/08 00:43:17;;;;;;;1.73;1.63;;;;;;;-2.43;84.65;100918.41;5106094;28;20051;-70
2023/12/08 00:45:43;;;;;;;2.28;2.13;;;;;;;-2.33;84.67;100938.44;5105922;28;20516;-69
2023/12/08 00:48:08;;;;;;;17.42;3.40;;;;;;;-2.32;84.76;100945.28;5105107;28;20051;-69
2023/12/08 00:50:33;;;;;;;3.42;3.13;;;;;;;-2.29;84.82;100942.91;5105721;28;20019;-69
2023/12/08 00:52:58;;;;;;;5.40;3.38;;;;;;;-2.29;84.74;100939.47;5105657;28;20058;-69
2023/12/08 00:55:24;;;;;;;1.58;1.48;;;;;;;-2.24;84.67;100949.09;5105712;28;20035;-69
2023/12/08 00:57:50;;;;;;;3.85;3.35;;;;;;;-2.32;84.65;100940.22;5105572;28;20540;-70
2023/12/08 01:00:17;;;;;;;2.42;2.28;;;;;;;-2.41;84.86;100929.53;5105244;28;20015;-70
2023/12/08 01:02:43;;;;;;;1.60;1.50;;;;;;;-2.31;84.70;100947.03;5105550;28;20070;-69
2023/12/08 01:05:08;;;;;;;0.73;0.73;;;;;;;-2.34;85.01;100938.34;5087169;28;20392;-70
2023/12/08 01:07:33;;;;;;;0.50;0.50;;;;;;;-2.39;84.70;100944.09;5105336;28;20080;-70
2023/12/08 01:09:59;;;;;;;0.85;0.75;;;;;;;-2.42;84.81;100928.66;5087124;28;20091;-69
2023/12/08 01:12:25;;;;;;;4.00;1.80;;;;;;;-2.35;84.90;100937.50;5105359;28;20028;-69
2023/12/08 01:14:50;;;;;;;0.82;0.82;;;;;;;-2.35;84.89;100940.03;5105254;28;20075;-70
2023/12/08 01:17:16;;;;;;;2.08;1.45;;;;;;;-2.35;84.92;100941.69;5105490;28;20043;-68
2023/12/08 01:19:41;;;;;;;0.95;0.95;;;;;;;-2.34;84.78;100935.81;5105070;28;20047;-69
2023/12/08 01:22:06;;;;;;;4.03;3.70;;;;;;;-2.34;85.04;100938.34;5105495;28;20039;-69
2023/12/08 01:24:32;;;;;;;0.80;0.80;;;;;;;-2.37;85.10;100941.63;5105262;28;20031;-69
2023/12/08 01:26:57;;;;;;;1.80;1.50;;;;;;;-2.42;85.25;100933.75;5105263;28;20028;-69
2023/12/08 01:29:22;;;;;;;1.77;1.67;;;;;;;-2.42;85.32;100943.91;5105079;28;20031;-69
2023/12/08 01:31:48;;;;;;;3.83;3.53;;;;;;;-2.41;85.36;100939.72;5105316;28;20047;-69
2023/12/08 01:34:13;;;;;;;2.03;1.92;;;;;;;-2.38;85.47;100940.72;5105175;28;20726;-69
2023/12/08 01:36:38;;;;;;;1.20;1.10;;;;;;;-2.35;85.68;100949.34;5105116;28;20085;-69
2023/12/08 01:39:04;;;;;;;5.68;2.90;;;;;;;-2.36;85.34;100938.28;5105017;28;20365;-68
2023/12/08 01:41:29;;;;;;;1.15;1.15;;;;;;;-2.34;85.45;100944.31;5104940;28;20091;-68
2023/12/08 01:43:54;;;;;;;1.58;1.50;;;;;;;-2.34;85.55;100938.34;5105170;28;20031;-69
2023/12/08 01:46:20;;;;;;;1.08;1.08;;;;;;;-2.33;85.48;100935.88;5105149;28;20457;-69
2023/12/08 01:48:47;;;;;;;0.70;0.70;;;;;;;-2.31;85.51;100941.94;5104859;28;20021;-70
2023/12/08 01:51:14;;;;;;;8.82;2.97;;;;;;;-2.33;85.57;100938.44;5086926;28;20047;-70
2023/12/08 01:53:40;;;;;;;0.70;0.70;;;;;;;-2.39;85.64;100928.81;5104826;28;20050;-69
2023/12/08 01:56:07;;;;;;;0.73;0.73;;;;;;;-2.30;85.68;100935.19;5104505;28;20055;-68
2023/12/08 01:58:34;;;;;;;2.25;1.13;;;;;;;-2.43;85.77;100911.63;5104815;28;20024;-68
2023/12/08 02:01:06;;;;;;;1.00;1.00;;;;;;;-2.34;85.73;100923.97;5108064;28;20024;-68
2023/12/08 02:03:35;;;;;;;1.85;1.75;;;;;;;-2.27;85.82;100931.13;5109135;28;20097;-69
2023/12/08 02:06:01;;;;;;;2.45;2.30;;;;;;;-2.26;85.80;100924.38;5109134;28;20027;-70
2023/12/08 02:08:27;;;;;;;1.52;1.35;;;;;;;-2.37;85.70;100916.19;5109053;28;20036;-69
2023/12/08 02:10:53;;;;;;;1.95;1.35;;;;;;;-2.30;85.83;100923.34;5108972;28;20026;-69
2023/12/08 02:13:19;;;;;;;1.23;1.13;;;;;;;-2.27;85.81;100923.50;5108819;28;20024;-69
2023/12/08 02:15:49;;;;;;;7.05;1.25;;;;;;;-2.24;85.77;100918.56;5108742;28;20062;-69
2023/12/08 02:18:14;;;;;;;0.90;0.90;;;;;;;-2.25;85.84;100914.28;5108622;28;20027;-70
2023/12/08 02:20:41;;;;;;;1.92;1.65;;;;;;;-2.27;85.74;100912.47;5108648;28;20039;-69
2023/12/08 02:23:06;;;;;;;0.60;0.60;;;;;;;-2.26;85.73;100916.75;5108634;28;20024;-70
2023/12/08 02:25:33;;;;;;;4.53;1.98;;;;;;;-2.26;85.79;100914.19;5108632;28;20035;-69
2023/12/08 02:27:59;;;;;;;2.50;1.85;;;;;;;-2.31;85.87;100901.25;5108481;28;20047;-70
2023/12/08 02:30:24;;;;;;;3.63;2.55;;;;;;;-2.20;85.91;100917.06;5108385;28;20537;-69
2023/12/08 02:33:02;;;;;;;0.73;0.73;;;;;;;-2.18;85.96;100906.97;5108516;28;20024;-69
2023/12/08 02:35:32;;;;;;;0.98;0.98;;;;;;;-2.21;86.08;100900.06;5108445;28;20020;-69
2023/12/08 02:37:59;;;;;;;2.17;1.98;;;;;;;-2.20;85.90;100899.25;5108437;28;20023;-70
2023/12/08 02:40:24;;;;;;;1.73;1.63;;;;;;;-2.20;85.87;100898.38;5108210;28;20096;-69
2023/12/08 02:42:50;;;;;;;7.07;2.85;;;;;;;-2.17;85.89;100896.00;5108422;28;20024;-69
2023/12/08 02:45:15;;;;;;;0.95;0.95;;;;;;;-2.18;85.85;100899.34;5108079;28;20016;-70
2023/12/08 02:47:40;;;;;;;0.93;0.93;;;;;;;-2.15;85.73;100894.41;5108135;28;20056;-69
2023/12/08 02:50:06;;;;;;;3.00;2.25;;;;;;;-2.14;85.77;100898.72;5108126;28;20028;-68
2023/12/08 02:52:31;;;;;;;1.23;1.15;;;;;;;-2.14;85.88;100899.56;5108156;28;20039;-69
2023/12/08 02:54:57;;;;;;;1.98;0.80;;;;;;;-2.10;85.86;100902.28;5107803;28;20047;-69
2023/12/08 02:57:22;;;;;;;1.25;1.25;;;;;;;-2.08;85.76;100899.03;5107919;28;20044;-69
2023/12/08 02:59:47;;;;;;;2.35;2.25;;;;;;;-2.10;85.68;100905.69;5107425;28;20217;-69
2023/12/08 03:02:12;;;;;;;2.60;1.88;;;;;;;-2.06;85.85;100902.50;5107965;28;20052;-69
2023/12/08 03:04:38;;;;;;;4.63;3.80;;;;;;;-2.10;85.80;100904.81;5108074;28;20046;-69
2023/12/08 03:07:03;;;;;;;1.75;1.65;;;;;;;-2.06;85.74;100902.50;5107894;28;20020;-69
2023/12/08 03:09:28;;;;;;;5.93;1.50;;;;;;;-2.09;85.78;100888.78;5107582;28;20020;-69
2023/12/08 03:11:54;;;;;;;2.10;1.17;;;;;;;-2.05;85.83;100899.19;5106732;28;20050;-69
2023/12/08 03:14:19;;;;;;;3.90;1.88;;;;;;;-2.10;85.74;100892.09;5107720;28;20024;-69
2023/12/08 03:16:46;;;;;;;1.40;1.30;;;;;;;-2.07;85.71;100899.88;5107561;28;20109;-70
2023/12/08 03:19:12;;;;;;;3.38;3.15;;;;;;;-2.08;85.84;100903.22;5089230;28;20024;-69
2023/12/08 03:21:37;;;;;;;1.48;1.15;;;;;;;-2.13;85.89;100891.16;5089309;28;20028;-69
2023/12/08 03:24:03;;;;;;;12.98;3.67;;;;;;;-2.16;85.99;100885.03;5107590;28;20024;-69
2023/12/08 03:26:28;;;;;;;7.68;2.70;;;;;;;-2.07;85.83;100900.75;5107516;28;20016;-68
2023/12/08 03:28:53;;;;;;;0.88;0.88;;;;;;;-2.20;85.81;100868.72;5107141;28;20028;-68
2023/12/08 03:31:29;;;;;;;3.88;2.42;;;;;;;-2.07;85.89;100890.59;5107509;28;20057;-69
2023/12/08 03:33:54;;;;;;;4.28;2.20;;;;;;;-2.10;85.77;100887.88;5107196;28;20032;-68
2023/12/08 03:36:20;;;;;;;2.25;2.13;;;;;;;-2.18;85.86;100876.44;5107137;28;20027;-69
2023/12/08 03:38:45;;;;;;;3.42;2.38;;;;;;;-2.08;85.89;100893.06;5088941;28;20017;-69
2023/12/08 03:41:11;;;;;;;2.38;2.05;;;;;;;-2.05;85.87;100891.56;5107096;28;20507;-69
2023/12/08 03:43:37;;;;;;;4.07;1.50;;;;;;;-2.02;85.92;100889.16;5106876;28;20020;-69
2023/12/08 03:46:03;;;;;;;0.80;0.80;;;;;;;-1.98;85.82;100884.22;5107454;28;20031;-70
2023/12/08 03:48:28;;;;;;;3.35;3.10;;;;;;;-1.98;86.03;100876.59;5106935;28;20051;-69
2023/12/08 03:50:53;;;;;;;3.70;3.33;;;;;;;-2.03;85.65;100858.53;5106849;28;20020;-70
2023/12/08 03:53:18;;;;;;;0.88;0.88;;;;;;;-2.03;85.65;100861.09;5107029;28;20051;-69
2023/12/08 03:55:44;;;;;;;3.13;2.92;;;;;;;-2.00;85.60;100866.34;5106707;28;20024;-69
2023/12/08 03:58:09;;;;;;;2.70;2.53;;;;;;;-1.98;85.70;100856.22;5106720;28;20036;-70
2023/12/08 04:00:34;;;;;;;2.40;2.20;;;;;;;-2.05;85.79;100853.38;5106617;28;20032;-69
2023/12/08 04:03:00;;;;;;;2.78;2.58;;;;;;;-2.01;85.70;100865.44;5106725;28;20027;-70
2023/12/08 04:05:25;;;;;;;6.05;1.92;;;;;;;-2.03;85.54;100867.03;5106634;28;20024;-70
2023/12/08 04:07:50;;;;;;;10.10;2.67;;;;;;;-2.03;85.50;100874.66;5106564;28;20032;-69
2023/12/08 04:10:16;;;;;;;0.85;0.85;;;;;;;-2.16;85.71;100854.50;5088304;28;20502;-69
2023/12/08 04:12:41;;;;;;;1.30;1.20;;;;;;;-2.15;85.76;100864.75;5106746;28;20031;-70
2023/12/08 04:15:07;;;;;;;5.60;2.30;;;;;;;-2.07;85.65;100874.44;5106323;28;20510;-70
2023/12/08 04:17:32;;;;;;;5.97;4.32;;;;;;;-2.10;85.84;100861.56;5106434;28;20088;-69
2023/12/08 04:19:58;;;;;;;0.50;0.50;;;;;;;-2.11;85.82;100855.63;5106352;28;20077;-69
2023/12/08 04:22:23;;;;;;;5.40;3.85;;;;;;;-2.06;85.88;100864.34;5106282;28;20099;-69
2023/12/08 04:24:48;;;;;;;4.60;4.18;;;;;;;-2.05;85.99;100866.09;5106356;28;20020;-69
2023/12/08 04:27:14;;;;;;;8.57;1.67;;;;;;;-2.03;85.81;100867.03;5106137;28;20063;-69
2023/12/08 04:29:39;;;;;;;2.70;1.88;;;;;;;-2.01;85.93;100869.66;5087752;28;20020;-69
2023/12/08 04:32:05;;;;;;;1.83;1.73;;;;;;;-2.02;85.82;100853.53;5106339;28;20027;-69
2023/12/08 04:34:30;;;;;;;1.40;1.30;;;;;;;-2.03;85.79;100846.69;5106105;28;20027;-69
2023/12/08 04:36:55;;;;;;;2.20;2.10;;;;;;;-2.03;85.74;100849.22;5106143;28;20043;-69
2023/12/08 04:39:21;;;;;;;2.55;2.45;;;;;;;-2.03;85.80;100848.38;5106096;28;20028;-67
2023/12/08 04:41:47;;;;;;;2.70;1.75;;;;;;;-2.04;85.68;100844.94;5106021;28;20016;-68
2023/12/08 04:44:12;;;;;;;14.07;1.92;;;;;;;-2.02;85.85;100853.53;5105770;28;20028;-68
2023/12/08 04:46:38;;;;;;;1.48;1.38;;;;;;;-2.02;85.75;100857.75;5105811;28;20042;-69
2023/12/08 04:49:03;;;;;;;2.83;1.70;;;;;;;-2.06;85.85;100851.63;5105645;28;20024;-69
2023/12/08 04:51:29;;;;;;;0.88;0.82;;;;;;;-2.13;85.77;100834.31;5105855;28;20028;-69
2023/12/08 04:53:54;;;;;;;1.92;1.73;;;;;;;-2.04;85.68;100855.13;5105723;28;20035;-69
2023/12/08 04:56:19;;;;;;;2.33;2.13;;;;;;;-2.09;85.72;100841.28;5105661;28;20043;-69
2023/12/08 04:58:47;;;;;;;0.73;0.73;;;;;;;-2.12;85.76;100851.31;5105462;28;20023;-68
2023/12/08 05:01:13;;;;;;;3.17;2.28;;;;;;;-2.14;85.69;100853.78;5105579;28;20024;-69
2023/12/08 05:03:39;;;;;;;3.30;1.42;;;;;;;-2.17;85.86;100840.91;5105668;28;20031;-69
2023/12/08 05:06:04;;;;;;;2.58;2.28;;;;;;;-2.12;85.97;100830.94;5105540;28;20024;-69
2023/12/08 05:08:30;;;;;;;2.80;2.45;;;;;;;-2.09;85.87;100830.25;5087058;28;20078;-69
2023/12/08 05:10:55;;;;;;;3.72;1.92;;;;;;;-2.21;85.84;100821.19;5087347;28;20028;-69
2023/12/08 05:13:20;;;;;;;3.17;2.83;;;;;;;-2.18;85.87;100825.56;5105485;28;20028;-69
2023/12/08 05:15:46;;;;;;;1.70;1.60;;;;;;;-2.17;85.93;100827.31;5105405;28;20035;-69
2023/12/08 05:18:11;;;;;;;1.15;1.15;;;;;;;-2.17;85.97;100824.78;5105387;28;20024;-69
2023/12/08 05:20:37;;;;;;;6.00;3.00;;;;;;;-2.15;86.05;100833.34;5105415;28;20031;-68
2023/12/08 05:23:02;;;;;;;1.65;1.40;;;;;;;-2.18;86.19;100833.19;5105236;28;20448;-69
2023/12/08 05:25:27;;;;;;;6.97;4.13;;;;;;;-2.16;86.08;100834.16;5105427;28;20024;-69
2023/12/08 05:27:53;;;;;;;3.60;1.65;;;;;;;-2.10;86.12;100836.13;5105270;28;20016;-69
2023/12/08 05:30:18;;;;;;;0.88;0.88;;;;;;;-2.05;86.15;100840.66;5086718;28;20016;-69
2023/12/08 05:32:43;;;;;;;1.60;1.50;;;;;;;-2.03;86.02;100833.09;5105382;28;20073;-68
2023/12/08 05:35:09;;;;;;;3.65;3.05;;;;;;;-1.98;85.90;100828.25;5104743;28;20050;-68
2023/12/08 05:37:34;;;;;;;2.17;1.33;;;;;;;-2.00;85.84;100823.94;5105115;28;20024;-68
2023/12/08 05:39:59;;;;;;;2.25;2.15;;;;;;;-1.98;85.69;100826.56;5105079;28;20016;-68
2023/12/08 05:42:24;;;;;;;1.30;1.27;;;;;;;-1.99;85.81;100824.81;5104942;28;20039;-68
2023/12/08 05:44:50;;;;;;;3.00;2.75;;;;;;;-2.05;85.79;100812.66;5105113;28;20111;-69
2023/12/08 05:47:15;;;;;;;3.60;1.58;;;;;;;-2.01;85.83;100816.22;5104883;28;20039;-68
2023/12/08 05:49:40;;;;;;;2.92;2.30;;;;;;;-2.02;85.77;100815.38;5086661;28;20028;-67
2023/12/08 05:52:06;;;;;;;4.30;1.52;;;;;;;-2.11;85.81;100797.09;5086822;28;20035;-67
2023/12/08 05:54:31;;;;;;;2.75;2.03;;;;;;;-2.00;85.79;100808.66;5104882;28;20024;-68
2023/12/08 05:56:58;;;;;;;1.38;1.20;;;;;;;-2.02;86.09;100812.81;5104938;28;20047;-67
2023/12/08 05:59:23;;;;;;;0.70;0.70;;;;;;;-1.96;85.84;100819.00;5104946;28;20028;-68
2023/12/08 06:01:49;;;;;;;2.45;2.25;;;;;;;-1.97;85.71;100814.72;5104900;28;20445;-68
2023/12/08 06:04:14;;;;;;;2.38;1.52;;;;;;;-2.01;85.82;100804.38;5104841;28;20024;-68
2023/12/08 06:06:39;;;;;;;2.95;2.70;;;;;;;-2.10;85.82;100783.56;5105053;28;20020;-70
2023/12/08 06:09:07;;;;;;;1.33;1.25;;;;;;;-1.90;85.71;100817.63;5104811;28;20020;-71
2023/12/08 06:11:32;;;;;;;0.82;0.82;;;;;;;-1.99;85.53;100809.53;5104578;28;20023;-71
2023/12/08 06:13:58;;;;;;;2.42;2.33;;;;;;;-1.91;85.71;100815.00;5104596;28;20024;-72
2023/12/08 06:16:23;;;;;;;4.07;3.72;;;;;;;-1.97;85.44;100817.25;5104881;28;20031;-71
2023/12/08 06:18:48;;;;;;;2.85;2.65;;;;;;;-2.04;85.33;100798.25;5105160;28;20027;-70
2023/12/08 06:21:14;;;;;;;2.85;2.60;;;;;;;-1.90;85.56;100822.72;5104993;28;20118;-72
2023/12/08 06:23:41;;;;;;;3.00;2.72;;;;;;;-1.91;85.42;100818.44;5104803;28;20499;-73
2023/12/08 06:26:06;;;;;;;2.75;1.65;;;;;;;-1.87;85.36;100820.31;5104635;28;20032;-71
2023/12/08 06:28:32;;;;;;;2.08;1.85;;;;;;;-1.91;85.39;100812.47;5086317;28;20024;-71
2023/12/08 06:30:58;;;;;;;8.02;2.55;;;;;;;-1.87;85.38;100812.69;5104456;28;20054;-70
2023/12/08 06:33:23;;;;;;;4.28;3.55;;;;;;;-1.89;85.48;100809.22;5104044;28;20087;-71
2023/12/08 06:35:48;;;;;;;3.35;3.15;;;;;;;-1.86;85.49;100800.84;5104171;28;20032;-71
2023/12/08 06:38:14;;;;;;;1.00;1.00;;;;;;;-1.85;85.53;100805.13;5104057;28;20212;-72
2023/12/08 06:40:40;;;;;;;2.75;2.33;;;;;;;-1.80;85.51;100808.78;5104429;28;20089;-71
2023/12/08 06:43:06;;;;;;;5.43;2.70;;;;;;;-1.81;85.37;100813.78;5086322;28;20476;-70
2023/12/08 06:45:31;;;;;;;5.65;3.00;;;;;;;-1.83;85.41;100821.34;5104172;28;20031;-71
2023/12/08 06:47:56;;;;;;;2.05;1.25;;;;;;;-1.94;85.40;100794.50;5105819;28;20016;-71
2023/12/08 06:50:22;;;;;;;1.17;1.17;;;;;;;-1.80;85.22;100802.81;5108080;28;20122;-71
2023/12/08 06:52:51;;;;;;;5.85;4.05;;;;;;;-1.84;84.97;100801.81;5108175;28;20024;-71
2023/12/08 06:55:16;;;;;;;2.05;1.95;;;;;;;-1.84;85.21;100800.91;5108270;28;20046;-72
2023/12/08 06:57:42;;;;;;;3.20;2.95;;;;;;;-1.84;85.19;100796.72;5089693;28;20044;-71
2023/12/08 07:00:10;;;;;;;2.85;2.65;;;;;;;-1.81;85.23;100795.97;5107765;28;20024;-71
2023/12/08 07:02:36;;;;;;;8.80;1.83;;;;;;;-1.86;85.15;100798.31;5108221;28;20107;-71
2023/12/08 07:05:01;;;;;;;4.45;1.73;;;;;;;-1.91;85.01;100799.75;5108148;28;20070;-71
2023/12/08 07:07:26;;;;;;;1.88;1.77;;;;;;;-1.92;84.72;100798.88;5108153;28;20094;-71
2023/12/08 07:09:52;;;;;;;2.22;1.90;;;;;;;-2.06;84.84;100789.69;5108029;28;20024;-71
2023/12/08 07:12:17;;;;;;;0.98;0.98;;;;;;;-2.12;85.02;100780.06;5107781;28;20024;-70
2023/12/08 07:14:43;;;;;;;3.15;2.28;;;;;;;-2.16;85.02;100788.34;5107579;28;20024;-71
2023/12/08 07:17:08;;;;;;;2.08;1.95;;;;;;;-2.19;85.06;100788.22;5108273;28;20532;-71
2023/12/08 07:19:36;;;;;;;4.93;2.80;;;;;;;-2.20;85.15;100797.50;5107694;28;20047;-71
2023/12/08 07:22:02;;;;;;;1.13;0.77;;;;;;;-2.15;85.06;100796.06;5107788;28;20024;-72
2023/12/08 07:24:27;;;;;;;4.57;1.65;;;;;;;-2.22;85.26;100799.09;5107707;28;20464;-71
2023/12/08 07:26:54;;;;;;;0.50;0.50;;;;;;;-2.25;85.36;100791.31;5107844;28;20023;-72
2023/12/08 07:29:22;;;;;;;1.80;1.70;;;;;;;-2.27;85.48;100800.53;5089258;28;20118;-71
2023/12/08 07:31:47;;;;;;;5.40;3.28;;;;;;;-2.31;85.66;100781.72;5107456;28;20031;-71
2023/12/08 07:34:12;;;;;;;0.75;0.75;;;;;;;-2.30;85.63;100773.28;5089239;28;20020;-71
2023/12/08 07:36:38;;;;;;;6.82;1.48;;;;;;;-2.24;85.63;100778.66;5107506;28;20469;-72
2023/12/08 07:39:03;;;;;;;0.95;0.95;;;;;;;-2.20;85.71;100781.34;5107370;28;20062;-72
2023/12/08 07:41:29;;;;;;;4.57;2.25;;;;;;;-2.22;85.51;100781.28;5089299;28;20020;-72
2023/12/08 07:43:55;;;;;;;4.30;3.65;;;;;;;-2.30;85.58;100770.72;5107015;28;20035;-70
2023/12/08 07:46:22;;;;;;;0.70;0.70;;;;;;;-2.27;85.73;100770.03;5107318;28;20046;-72
2023/12/08 07:48:48;;;;;;;1.08;1.00;;;;;;;-2.24;85.65;100785.44;5107341;28;20020;-71
2023/12/08 07:51:13;;;;;;;1.08;1.08;;;;;;;-2.22;85.72;100783.81;5088866;28;20020;-72
2023/12/08 07:53:39;;;;;;;3.63;2.10;;;;;;;-2.24;85.83;100786.28;5106830;28;20415;-71
2023/12/08 07:56:05;;;;;;;1.27;1.27;;;;;;;-2.19;85.86;100794.16;5088629;28;20056;-70
2023/12/08 07:58:30;;;;;;;0.90;0.90;;;;;;;-2.27;85.99;100770.03;5106557;28;20024;-72
2023/12/08 08:00:56;;;;;;;3.33;3.13;;;;;;;-2.14;85.89;100796.94;5106824;28;20031;-71
2023/12/08 08:03:21;;;;;;;9.48;2.60;;;;;;;-2.15;86.22;100782.47;5106896;28;20468;-72
2023/12/08 08:05:46;;;;;;;1.95;1.85;;;;;;;-2.07;85.89;100777.75;5106747;28;20043;-72
2023/12/08 08:08:12;;;;;;;2.65;1.58;;;;;;;-2.02;85.77;100778.84;5106695;28;20020;-72
2023/12/08 08:10:37;;;;;;;0.73;0.73;;;;;;;-1.99;86.02;100781.56;5088217;28;20024;-72
2023/12/08 08:13:02;;;;;;;2.38;1.58;;;;;;;-2.01;86.19;100778.06;5088398;28;20059;-73
2023/12/08 08:15:28;;;;;;;3.08;1.30;;;;;;;-1.97;85.98;100790.16;5106213;28;20088;-72
2023/12/08 08:17:53;;;;;;;11.80;2.08;;;;;;;-1.97;85.89;100774.00;5106417;28;20012;-72
2023/12/08 08:20:19;;;;;;;2.47;1.90;;;;;;;-1.91;86.05;100785.34;5106199;28;20064;-71
2023/12/08 08:22:44;;;;;;;4.45;3.35;;;;;;;-1.91;86.15;100775.16;5106409;28;20016;-71
2023/12/08 08:25:09;;;;;;;12.38;2.88;;;;;;;-1.82;86.35;100778.97;5106242;28;20505;-72
2023/12/08 08:27:36;;;;;;;1.60;1.50;;;;;;;-1.81;86.26;100779.03;5106444;28;20020;-72
2023/12/08 08:30:02;;;;;;;1.02;1.02;;;;;;;-1.73;86.00;100778.53;5106014;28;20024;-71
2023/12/08 08:32:28;;;;;;;1.08;1.05;;;;;;;-1.67;85.57;100781.34;5087864;28;20048;-71
2023/12/08 08:34:53;;;;;;;1.88;1.45;;;;;;;-1.67;85.82;100796.63;5106229;28;20030;-71
2023/12/08 08:37:22;;;;;;;0.90;0.90;;;;;;;-1.69;85.96;100790.63;5106116;28;20016;-71
2023/12/08 08:39:48;;;;;;;0.50;0.50;;;;;;;-1.64;85.97;100796.78;5087709;28;20019;-71
2023/12/08 08:42:14;;;;;;;3.28;3.03;;;;;;;-1.64;85.98;100805.31;5106253;28;20016;-72
2023/12/08 08:44:39;;;;;;;1.38;1.33;;;;;;;-1.65;86.01;100788.28;5105696;28;20073;-71
2023/12/08 08:47:04;;;;;;;1.77;1.67;;;;;;;-1.58;85.68;100803.84;5105990;28;20047;-72
2023/12/08 08:49:30;;;;;;;3.50;3.22;;;;;;;-1.64;85.69;100800.22;5087870;28;20522;-72
2023/12/08 08:51:55;;;;;;;7.63;4.25;;;;;;;-1.58;85.76;100812.34;5105881;28;20054;-72
2023/12/08 08:54:21;;;;;;;0.80;0.80;;;;;;;-1.52;85.52;100804.16;5105906;28;20046;-72
2023/12/08 08:56:46;;;;;;;1.80;1.70;;;;;;;-1.60;85.59;100803.78;5087331;28;20044;-72
2023/12/08 08:59:11;;;;;;;2.85;2.20;;;;;;;-1.57;86.01;100811.56;5105393;28;20058;-71
2023/12/08 09:01:38;;;;;;;6.22;2.90;;;;;;;-1.55;85.96;100806.56;5105834;28;20479;-72
2023/12/08 09:04:04;;;;;;;2.30;2.20;;;;;;;-1.54;85.98;100804.06;5087515;28;20023;-72
2023/12/08 09:06:29;;;;;;;0.68;0.68;;;;;;;-1.61;85.90;100791.84;5105593;28;20024;-72
2023/12/08 09:08:55;;;;;;;17.90;2.55;;;;;;;-1.46;86.27;100813.75;5105551;28;20039;-72
2023/12/08 09:11:21;;;;;;;1.08;1.08;;;;;;;-1.44;86.10;100813.03;5105064;28;20020;-71
2023/12/08 09:13:47;;;;;;;1.65;1.40;;;;;;;-1.40;86.06;100814.91;5105597;28;20020;-72
2023/12/08 09:16:12;;;;;;;1.00;0.80;;;;;;;-1.35;86.02;100807.47;5105394;28;20023;-73
2023/12/08 09:18:38;;;;;;;0.75;0.75;;;;;;;-1.40;85.99;100796.19;5105449;28;20020;-72
2023/12/08 09:21:05;;;;;;;5.30;4.00;;;;;;;-1.33;85.52;100795.69;5105075;28;20026;-71
2023/12/08 09:23:30;;;;;;;3.10;2.83;;;;;;;-1.39;85.68;100796.25;5105352;28;20462;-71
2023/12/08 09:25:56;;;;;;;0.60;0.60;;;;;;;-1.34;85.91;100806.66;5105328;28;20020;-72
2023/12/08 09:28:21;;;;;;;2.47;1.85;;;;;;;-1.31;85.53;100804.25;5105443;28;20073;-72
2023/12/08 09:30:48;;;;;;;1.92;1.83;;;;;;;-1.30;85.96;100806.03;5087033;28;20109;-72
2023/12/08 09:33:14;;;;;;;2.90;2.55;;;;;;;-1.23;86.01;100811.41;5105172;28;20028;-72
2023/12/08 09:35:39;;;;;;;3.15;2.80;;;;;;;-1.18;85.79;100817.59;5087139;28;20024;-72
2023/12/08 09:38:05;;;;;;;3.85;1.88;;;;;;;-1.15;85.76;100820.28;5105205;28;20045;-72
2023/12/08 09:40:32;;;;;;;2.70;2.05;;;;;;;-1.12;86.11;100820.44;5086684;28;20027;-73
2023/12/08 09:43:07;;;;;;;3.25;3.00;;;;;;;-1.08;85.63;100812.09;5105217;28;20028;-72
2023/12/08 09:45:33;;;;;;;3.25;1.90;;;;;;;-1.09;85.79;100818.03;5104682;28;20020;-72
2023/12/08 09:48:00;;;;;;;5.53;3.90;;;;;;;-1.00;85.91;100820.97;5086789;28;20023;-73
2023/12/08 09:50:26;;;;;;;5.80;3.63;;;;;;;-0.98;85.67;100807.44;5086637;28;20049;-72
2023/12/08 09:52:54;;;;;;;4.32;3.38;;;;;;;-1.00;85.61;100803.16;5104935;28;20077;-72
2023/12/08 09:55:20;;;;;;;3.63;2.88;;;;;;;-0.90;85.67;100806.09;5086870;28;20024;-73
2023/12/08 09:57:48;;;;;;;2.05;1.88;;;;;;;-0.90;85.27;100795.91;5104681;28;20060;-73
2023/12/08 10:00:15;;;;;;;7.47;2.58;;;;;;;-0.89;85.47;100808.72;5104679;28;20032;-72
2023/12/08 10:02:41;;;;;;;4.88;2.90;;;;;;;-0.85;85.64;100793.56;5086977;28;20472;-72
2023/12/08 10:05:07;;;;;;;0.88;0.88;;;;;;;-0.79;85.43;100799.81;5104890;28;20024;-71
2023/12/08 10:07:34;;;;;;;2.55;1.65;;;;;;;-0.80;85.41;100787.84;5104769;28;20523;-72
2023/12/08 10:10:00;;;;;;;0.95;0.95;;;;;;;-0.75;85.36;100788.03;5104896;28;20350;-71
2023/12/08 10:12:27;;;;;;;0.90;0.90;;;;;;;-0.69;85.17;100788.34;5086595;28;20035;-71
2023/12/08 10:14:57;;;;;;;2.90;2.70;;;;;;;-0.70;85.32;100778.09;5104837;28;20030;-72
2023/12/08 10:17:23;;;;;;;2.05;1.95;;;;;;;-0.62;85.34;100781.81;5105057;28;20035;-72
2023/12/08 10:19:51;;;;;;;1.45;1.35;;;;;;;-0.60;85.40;100774.22;5104633;28;20028;-70
2023/12/08 10:22:17;;;;;;;2.53;2.38;;;;;;;-0.57;85.19;100775.25;5107998;28;20024;-72
2023/12/08 10:24:43;;;;;;;2.30;2.10;;;;;;;-0.62;85.21;100769.06;5108666;28;20024;-72
2023/12/08 10:27:11;;;;;;;3.45;1.58;;;;;;;-0.58;85.34;100770.06;5090325;28;20131;-72
2023/12/08 10:29:37;;;;;;;2.25;1.35;;;;;;;-0.55;85.47;100771.09;5108582;28;20362;-71
2023/12/08 10:32:06;;;;;;;5.95;3.35;;;;;;;-0.56;85.19;100776.13;5108537;28;20020;-72
2023/12/08 10:34:32;;;;;;;3.05;2.88;;;;;;;-0.57;85.33;100770.13;5108538;28;20027;-71
2023/12/08 10:36:57;;;;;;;2.72;1.45;;;;;;;-0.60;85.08;100766.56;5108778;28;20027;-71
2023/12/08 10:39:24;;;;;;;2.78;2.53;;;;;;;-0.54;84.82;100767.72;5108581;28;20020;-72
2023/12/08 10:41:53;;;;;;;2.67;2.58;;;;;;;-0.58;85.24;100757.31;5108341;28;20091;-72
2023/12/08 10:44:21;;;;;;;6.00;3.00;;;;;;;-0.60;85.26;100744.50;5108117;28;20460;-70
2023/12/08 10:46:49;;;;;;;2.35;2.25;;;;;;;-0.58;85.36;100744.56;5108517;28;20012;-68
2023/12/08 10:49:21;;;;;;;2.45;2.05;;;;;;;-0.63;85.31;100739.28;5108263;28;20024;-71
2023/12/08 10:51:49;;;;;;;4.70;3.40;;;;;;;-0.63;85.31;100736.72;5090017;28;20020;-71
2023/12/08 10:54:16;;;;;;;3.08;2.85;;;;;;;-0.68;85.40;100733.09;5108217;28;20020;-71
2023/12/08 10:56:43;;;;;;;3.03;2.20;;;;;;;-0.72;85.44;100724.47;5108145;28;20055;-72
2023/12/08 10:59:10;;;;;;;1.52;1.40;;;;;;;-0.70;85.49;100732.19;5107880;28;20063;-72
2023/12/08 11:01:37;;;;;;;6.57;3.28;;;;;;;-0.69;85.53;100736.47;5108137;28;20073;-72
2023/12/08 11:04:10;;;;;;;2.78;2.58;;;;;;;-0.73;85.49;100726.91;5108018;28;20028;-71
2023/12/08 11:06:42;;;;;;;2.28;2.08;;;;;;;-0.68;85.71;100726.31;5107912;28;20034;-71
2023/12/08 11:09:12;;;;;;;2.63;1.98;;;;;;;-0.62;86.00;100715.50;5107808;28;20039;-72
2023/12/08 11:11:42;;;;;;;11.07;2.10;;;;;;;-0.52;85.89;100720.22;5107823;28;20031;-72
2023/12/08 11:14:13;;;;;;;2.38;2.17;;;;;;;-0.51;86.10;100724.50;5107387;28;20031;-70
2023/12/08 11:16:47;;;;;;;1.70;1.25;;;;;;;-0.48;85.81;100711.00;5107814;28;20044;-74
2023/12/08 11:19:13;;;;;;;1.92;1.75;;;;;;;-0.44;85.75;100714.53;5107541;28;20020;-72